sensor_id;sensor_type;location;lat;lon;timestamp;P1;P2;P0
74880;PMS5003;63427;49.654;6.596;2023-03-13T00:01:40;6;6;
74880;PMS5003;63427;49.654;6.596;2023-03-13T00:04:05;4;4;
74880;PMS5003;63427;49.654;6.596;2023-03-13T00:06:32;4;3;
74880;PMS5003;63427;49.654;6.596;2023-03-13T00:08:56;5;4;
74880;PMS5003;63427;49.654;6.596;2023-03-13T00:11:22;2;2;
74880;PMS5003;63427;49.654;6.596;2023-03-13T00:13:47;6;5;
74880;PMS5003;63427;49.654;6.596;2023-03-13T00:16:13;5;4;
74880;PMS5003;63427;49.654;6.596;2023-03-13T00:18:40;5;3;
74880;PMS5003;63427;49.654;6.596;2023-03-13T00:21:04;5;5;
74880;PMS5003;63427;49.654;6.596;2023-03-13T00:23:29;4;4;
74880;PMS5003;63427;49.654;6.596;2023-03-13T00:25:55;4;4;
74880;PMS5003;63427;49.654;6.596;2023-03-13T00:28:20;3;3;
74880;PMS5003;63427;49.654;6.596;2023-03-13T00:30:46;4;4;
74880;PMS5003;63427;49.654;6.596;2023-03-13T00:33:11;2;2;
74880;PMS5003;63427;49.654;6.596;2023-03-13T00:35:36;4;4;
74880;PMS5003;63427;49.654;6.596;2023-03-13T00:38:02;5;5;
74880;PMS5003;63427;49.654;6.596;2023-03-13T00:40:27;5;5;
74880;PMS5003;63427;49.654;6.596;2023-03-13T00:42:53;4;3;
74880;PMS5003;63427;49.654;6.596;2023-03-13T00:45:18;4;4;
74880;PMS5003;63427;49.654;6.596;2023-03-13T00:47:44;6;5;
74880;PMS5003;63427;49.654;6.596;2023-03-13T00:50:10;5;4;
74880;PMS5003;63427;49.654;6.596;2023-03-13T00:52:35;4;3;
74880;PMS5003;63427;49.654;6.596;2023-03-13T00:55:00;4;4;
74880;PMS5003;63427;49.654;6.596;2023-03-13T00:57:26;6;5;
74880;PMS5003;63427;49.654;6.596;2023-03-13T00:59:51;5;4;
74880;PMS5003;63427;49.654;6.596;2023-03-13T01:02:17;3;3;
74880;PMS5003;63427;49.654;6.596;2023-03-13T01:04:43;5;4;
74880;PMS5003;63427;49.654;6.596;2023-03-13T01:07:08;7;4;
74880;PMS5003;63427;49.654;6.596;2023-03-13T01:09:34;5;4;
74880;PMS5003;63427;49.654;6.596;2023-03-13T01:11:59;4;3;
74880;PMS5003;63427;49.654;6.596;2023-03-13T01:14:25;6;5;
74880;PMS5003;63427;49.654;6.596;2023-03-13T01:16:50;4;4;
74880;PMS5003;63427;49.654;6.596;2023-03-13T01:19:16;7;5;
74880;PMS5003;63427;49.654;6.596;2023-03-13T01:21:42;6;5;
74880;PMS5003;63427;49.654;6.596;2023-03-13T01:24:07;4;3;
74880;PMS5003;63427;49.654;6.596;2023-03-13T01:26:33;5;4;
74880;PMS5003;63427;49.654;6.596;2023-03-13T01:28:58;5;3;
74880;PMS5003;63427;49.654;6.596;2023-03-13T01:31:25;3;3;
74880;PMS5003;63427;49.654;6.596;2023-03-13T01:33:50;4;3;
74880;PMS5003;63427;49.654;6.596;2023-03-13T01:36:15;5;4;
74880;PMS5003;63427;49.654;6.596;2023-03-13T01:38:40;5;4;
74880;PMS5003;63427;49.654;6.596;2023-03-13T01:41:06;5;5;
74880;PMS5003;63427;49.654;6.596;2023-03-13T01:43:32;3;3;
74880;PMS5003;63427;49.654;6.596;2023-03-13T01:46:00;3;2;
74880;PMS5003;63427;49.654;6.596;2023-03-13T01:48:23;4;3;
74880;PMS5003;63427;49.654;6.596;2023-03-13T01:50:48;5;4;
74880;PMS5003;63427;49.654;6.596;2023-03-13T01:53:13;3;2;
74880;PMS5003;63427;49.654;6.596;2023-03-13T01:55:39;2;2;
74880;PMS5003;63427;49.654;6.596;2023-03-13T01:58:04;2;2;
74880;PMS5003;63427;49.654;6.596;2023-03-13T02:00:31;2;2;
74880;PMS5003;63427;49.654;6.596;2023-03-13T02:02:56;2;2;
74880;PMS5003;63427;49.654;6.596;2023-03-13T02:05:22;2;1;
74880;PMS5003;63427;49.654;6.596;2023-03-13T02:07:47;2;2;
74880;PMS5003;63427;49.654;6.596;2023-03-13T02:10:12;2;2;
74880;PMS5003;63427;49.654;6.596;2023-03-13T02:12:38;1;1;
74880;PMS5003;63427;49.654;6.596;2023-03-13T02:15:05;3;3;
74880;PMS5003;63427;49.654;6.596;2023-03-13T02:17:29;0;0;
74880;PMS5003;63427;49.654;6.596;2023-03-13T02:19:54;1;1;
74880;PMS5003;63427;49.654;6.596;2023-03-13T02:22:21;2;2;
74880;PMS5003;63427;49.654;6.596;2023-03-13T02:24:47;2;2;
74880;PMS5003;63427;49.654;6.596;2023-03-13T02:27:11;2;2;
74880;PMS5003;63427;49.654;6.596;2023-03-13T02:29:36;1;1;
74880;PMS5003;63427;49.654;6.596;2023-03-13T02:32:02;1;1;
74880;PMS5003;63427;49.654;6.596;2023-03-13T02:34:29;1;1;
74880;PMS5003;63427;49.654;6.596;2023-03-13T02:36:53;1;1;
74880;PMS5003;63427;49.654;6.596;2023-03-13T02:39:19;0;0;
74880;PMS5003;63427;49.654;6.596;2023-03-13T02:41:44;1;1;
74880;PMS5003;63427;49.654;6.596;2023-03-13T02:44:09;0;0;
74880;PMS5003;63427;49.654;6.596;2023-03-13T02:51:27;2;2;
74880;PMS5003;63427;49.654;6.596;2023-03-13T02:53:53;3;2;
74880;PMS5003;63427;49.654;6.596;2023-03-13T02:56:18;1;1;
74880;PMS5003;63427;49.654;6.596;2023-03-13T02:58:43;1;1;
74880;PMS5003;63427;49.654;6.596;2023-03-13T03:01:08;2;1;
74880;PMS5003;63427;49.654;6.596;2023-03-13T03:03:34;1;1;
74880;PMS5003;63427;49.654;6.596;2023-03-13T03:05:59;1;1;
74880;PMS5003;63427;49.654;6.596;2023-03-13T03:08:25;2;2;
74880;PMS5003;63427;49.654;6.596;2023-03-13T03:10:50;1;1;
74880;PMS5003;63427;49.654;6.596;2023-03-13T03:13:16;2;2;
74880;PMS5003;63427;49.654;6.596;2023-03-13T03:15:41;0;0;
74880;PMS5003;63427;49.654;6.596;2023-03-13T03:18:07;1;1;
74880;PMS5003;63427;49.654;6.596;2023-03-13T03:20:32;1;1;
74880;PMS5003;63427;49.654;6.596;2023-03-13T03:22:58;2;2;
74880;PMS5003;63427;49.654;6.596;2023-03-13T03:25:23;2;2;
74880;PMS5003;63427;49.654;6.596;2023-03-13T03:27:49;1;1;
74880;PMS5003;63427;49.654;6.596;2023-03-13T03:30:14;4;3;
74880;PMS5003;63427;49.654;6.596;2023-03-13T03:32:40;2;2;
74880;PMS5003;63427;49.654;6.596;2023-03-13T03:35:05;2;2;
74880;PMS5003;63427;49.654;6.596;2023-03-13T03:37:31;3;3;
74880;PMS5003;63427;49.654;6.596;2023-03-13T03:39:56;2;2;
74880;PMS5003;63427;49.654;6.596;2023-03-13T03:42:22;2;2;
74880;PMS5003;63427;49.654;6.596;2023-03-13T03:44:47;4;4;
74880;PMS5003;63427;49.654;6.596;2023-03-13T03:47:13;4;4;
74880;PMS5003;63427;49.654;6.596;2023-03-13T03:49:38;2;2;
74880;PMS5003;63427;49.654;6.596;2023-03-13T03:52:04;6;5;
74880;PMS5003;63427;49.654;6.596;2023-03-13T03:54:29;4;3;
74880;PMS5003;63427;49.654;6.596;2023-03-13T03:56:55;3;3;
74880;PMS5003;63427;49.654;6.596;2023-03-13T03:59:20;3;3;
74880;PMS5003;63427;49.654;6.596;2023-03-13T04:01:46;2;2;
74880;PMS5003;63427;49.654;6.596;2023-03-13T04:04:11;2;2;
74880;PMS5003;63427;49.654;6.596;2023-03-13T04:06:37;4;4;
74880;PMS5003;63427;49.654;6.596;2023-03-13T04:09:02;3;3;
74880;PMS5003;63427;49.654;6.596;2023-03-13T04:11:27;3;3;
74880;PMS5003;63427;49.654;6.596;2023-03-13T04:13:53;4;4;
74880;PMS5003;63427;49.654;6.596;2023-03-13T04:16:19;4;3;
74880;PMS5003;63427;49.654;6.596;2023-03-13T04:18:44;3;3;
74880;PMS5003;63427;49.654;6.596;2023-03-13T04:21:09;5;5;
74880;PMS5003;63427;49.654;6.596;2023-03-13T04:23:35;4;4;
74880;PMS5003;63427;49.654;6.596;2023-03-13T04:26:00;2;2;
74880;PMS5003;63427;49.654;6.596;2023-03-13T04:28:26;4;4;
74880;PMS5003;63427;49.654;6.596;2023-03-13T04:30:51;3;3;
74880;PMS5003;63427;49.654;6.596;2023-03-13T04:33:17;4;4;
74880;PMS5003;63427;49.654;6.596;2023-03-13T04:35:42;4;4;
74880;PMS5003;63427;49.654;6.596;2023-03-13T04:38:08;4;4;
74880;PMS5003;63427;49.654;6.596;2023-03-13T04:40:33;2;2;
74880;PMS5003;63427;49.654;6.596;2023-03-13T04:42:59;4;3;
74880;PMS5003;63427;49.654;6.596;2023-03-13T04:45:24;4;4;
74880;PMS5003;63427;49.654;6.596;2023-03-13T04:47:49;3;2;
74880;PMS5003;63427;49.654;6.596;2023-03-13T04:50:15;2;2;
74880;PMS5003;63427;49.654;6.596;2023-03-13T04:52:40;4;4;
74880;PMS5003;63427;49.654;6.596;2023-03-13T04:55:06;3;3;
74880;PMS5003;63427;49.654;6.596;2023-03-13T04:57:31;3;3;
74880;PMS5003;63427;49.654;6.596;2023-03-13T04:59:56;2;2;
74880;PMS5003;63427;49.654;6.596;2023-03-13T05:02:22;3;3;
74880;PMS5003;63427;49.654;6.596;2023-03-13T05:04:47;4;3;
74880;PMS5003;63427;49.654;6.596;2023-03-13T05:07:13;3;3;
74880;PMS5003;63427;49.654;6.596;2023-03-13T05:09:38;4;4;
74880;PMS5003;63427;49.654;6.596;2023-03-13T05:12:04;5;5;
74880;PMS5003;63427;49.654;6.596;2023-03-13T05:14:29;4;4;
74880;PMS5003;63427;49.654;6.596;2023-03-13T05:16:55;3;3;
74880;PMS5003;63427;49.654;6.596;2023-03-13T05:19:20;5;5;
74880;PMS5003;63427;49.654;6.596;2023-03-13T05:21:45;7;7;
74880;PMS5003;63427;49.654;6.596;2023-03-13T05:24:11;4;4;
74880;PMS5003;63427;49.654;6.596;2023-03-13T05:26:36;4;4;
74880;PMS5003;63427;49.654;6.596;2023-03-13T05:29:02;4;4;
74880;PMS5003;63427;49.654;6.596;2023-03-13T05:31:27;4;4;
74880;PMS5003;63427;49.654;6.596;2023-03-13T05:33:52;6;6;
74880;PMS5003;63427;49.654;6.596;2023-03-13T05:36:18;3;3;
74880;PMS5003;63427;49.654;6.596;2023-03-13T05:38:43;3;3;
74880;PMS5003;63427;49.654;6.596;2023-03-13T05:41:09;1;1;
74880;PMS5003;63427;49.654;6.596;2023-03-13T05:43:34;3;3;
74880;PMS5003;63427;49.654;6.596;2023-03-13T05:46:00;3;3;
74880;PMS5003;63427;49.654;6.596;2023-03-13T05:48:25;3;3;
74880;PMS5003;63427;49.654;6.596;2023-03-13T05:50:50;2;2;
74880;PMS5003;63427;49.654;6.596;2023-03-13T05:53:16;5;4;
74880;PMS5003;63427;49.654;6.596;2023-03-13T05:55:41;4;4;
74880;PMS5003;63427;49.654;6.596;2023-03-13T05:58:07;2;2;
74880;PMS5003;63427;49.654;6.596;2023-03-13T06:00:32;3;3;
74880;PMS5003;63427;49.654;6.596;2023-03-13T06:02:58;4;4;
74880;PMS5003;63427;49.654;6.596;2023-03-13T06:05:23;4;4;
74880;PMS5003;63427;49.654;6.596;2023-03-13T06:07:49;4;4;
74880;PMS5003;63427;49.654;6.596;2023-03-13T06:10:14;5;5;
74880;PMS5003;63427;49.654;6.596;2023-03-13T06:12:39;4;4;
74880;PMS5003;63427;49.654;6.596;2023-03-13T06:15:05;3;3;
74880;PMS5003;63427;49.654;6.596;2023-03-13T06:17:30;4;4;
74880;PMS5003;63427;49.654;6.596;2023-03-13T06:19:56;4;4;
74880;PMS5003;63427;49.654;6.596;2023-03-13T06:22:21;3;3;
74880;PMS5003;63427;49.654;6.596;2023-03-13T06:24:46;7;7;
74880;PMS5003;63427;49.654;6.596;2023-03-13T06:27:12;4;4;
74880;PMS5003;63427;49.654;6.596;2023-03-13T06:29:37;4;4;
74880;PMS5003;63427;49.654;6.596;2023-03-13T06:32:03;4;4;
74880;PMS5003;63427;49.654;6.596;2023-03-13T06:34:28;5;5;
74880;PMS5003;63427;49.654;6.596;2023-03-13T06:36:53;6;6;
74880;PMS5003;63427;49.654;6.596;2023-03-13T06:39:19;5;4;
74880;PMS5003;63427;49.654;6.596;2023-03-13T06:41:45;6;6;
74880;PMS5003;63427;49.654;6.596;2023-03-13T06:44:10;3;3;
74880;PMS5003;63427;49.654;6.596;2023-03-13T06:46:35;4;4;
74880;PMS5003;63427;49.654;6.596;2023-03-13T06:49:01;5;5;
74880;PMS5003;63427;49.654;6.596;2023-03-13T06:51:26;3;3;
74880;PMS5003;63427;49.654;6.596;2023-03-13T06:53:52;4;3;
74880;PMS5003;63427;49.654;6.596;2023-03-13T06:56:17;4;4;
74880;PMS5003;63427;49.654;6.596;2023-03-13T06:58:45;4;4;
74880;PMS5003;63427;49.654;6.596;2023-03-13T07:01:09;4;3;
74880;PMS5003;63427;49.654;6.596;2023-03-13T07:03:33;5;5;
74880;PMS5003;63427;49.654;6.596;2023-03-13T07:05:59;5;5;
74880;PMS5003;63427;49.654;6.596;2023-03-13T07:08:24;5;5;
74880;PMS5003;63427;49.654;6.596;2023-03-13T07:10:49;5;5;
74880;PMS5003;63427;49.654;6.596;2023-03-13T07:13:15;5;5;
74880;PMS5003;63427;49.654;6.596;2023-03-13T07:15:40;6;6;
74880;PMS5003;63427;49.654;6.596;2023-03-13T07:18:06;6;6;
74880;PMS5003;63427;49.654;6.596;2023-03-13T07:20:31;4;4;
74880;PMS5003;63427;49.654;6.596;2023-03-13T07:22:56;6;6;
74880;PMS5003;63427;49.654;6.596;2023-03-13T07:25:22;6;6;
74880;PMS5003;63427;49.654;6.596;2023-03-13T07:27:49;5;5;
74880;PMS5003;63427;49.654;6.596;2023-03-13T07:30:13;6;5;
74880;PMS5003;63427;49.654;6.596;2023-03-13T07:32:38;5;5;
74880;PMS5003;63427;49.654;6.596;2023-03-13T07:35:04;5;5;
74880;PMS5003;63427;49.654;6.596;2023-03-13T07:37:29;6;6;
74880;PMS5003;63427;49.654;6.596;2023-03-13T07:39:55;6;6;
74880;PMS5003;63427;49.654;6.596;2023-03-13T07:42:20;6;6;
74880;PMS5003;63427;49.654;6.596;2023-03-13T07:44:45;5;5;
74880;PMS5003;63427;49.654;6.596;2023-03-13T07:47:11;6;6;
74880;PMS5003;63427;49.654;6.596;2023-03-13T07:49:36;6;6;
74880;PMS5003;63427;49.654;6.596;2023-03-13T07:52:02;7;7;
74880;PMS5003;63427;49.654;6.596;2023-03-13T07:54:27;5;5;
74880;PMS5003;63427;49.654;6.596;2023-03-13T07:56:52;6;6;
74880;PMS5003;63427;49.654;6.596;2023-03-13T07:59:18;5;5;
74880;PMS5003;63427;49.654;6.596;2023-03-13T08:01:43;9;8;
74880;PMS5003;63427;49.654;6.596;2023-03-13T08:04:10;6;6;
74880;PMS5003;63427;49.654;6.596;2023-03-13T08:06:35;7;7;
74880;PMS5003;63427;49.654;6.596;2023-03-13T08:09:00;7;6;
74880;PMS5003;63427;49.654;6.596;2023-03-13T08:11:26;6;6;
74880;PMS5003;63427;49.654;6.596;2023-03-13T08:13:51;7;7;
74880;PMS5003;63427;49.654;6.596;2023-03-13T08:16:17;6;5;
74880;PMS5003;63427;49.654;6.596;2023-03-13T08:18:42;7;7;
74880;PMS5003;63427;49.654;6.596;2023-03-13T08:21:08;8;7;
74880;PMS5003;63427;49.654;6.596;2023-03-13T08:23:32;6;6;
74880;PMS5003;63427;49.654;6.596;2023-03-13T08:26:00;4;4;
74880;PMS5003;63427;49.654;6.596;2023-03-13T08:28:23;6;6;
74880;PMS5003;63427;49.654;6.596;2023-03-13T08:30:49;8;7;
74880;PMS5003;63427;49.654;6.596;2023-03-13T08:33:14;5;5;
74880;PMS5003;63427;49.654;6.596;2023-03-13T08:35:39;5;5;
74880;PMS5003;63427;49.654;6.596;2023-03-13T08:38:05;6;6;
74880;PMS5003;63427;49.654;6.596;2023-03-13T08:40:30;7;6;
74880;PMS5003;63427;49.654;6.596;2023-03-13T08:42:56;7;7;
74880;PMS5003;63427;49.654;6.596;2023-03-13T08:45:21;7;7;
74880;PMS5003;63427;49.654;6.596;2023-03-13T08:47:48;6;6;
74880;PMS5003;63427;49.654;6.596;2023-03-13T08:50:12;5;5;
74880;PMS5003;63427;49.654;6.596;2023-03-13T08:52:37;6;6;
74880;PMS5003;63427;49.654;6.596;2023-03-13T08:55:03;6;5;
74880;PMS5003;63427;49.654;6.596;2023-03-13T08:57:28;7;7;
74880;PMS5003;63427;49.654;6.596;2023-03-13T08:59:53;7;7;
74880;PMS5003;63427;49.654;6.596;2023-03-13T09:02:19;7;6;
74880;PMS5003;63427;49.654;6.596;2023-03-13T09:04:45;6;5;
74880;PMS5003;63427;49.654;6.596;2023-03-13T09:07:10;6;6;
74880;PMS5003;63427;49.654;6.596;2023-03-13T09:09:35;8;8;
74880;PMS5003;63427;49.654;6.596;2023-03-13T09:12:00;5;5;
74880;PMS5003;63427;49.654;6.596;2023-03-13T09:14:26;6;6;
74880;PMS5003;63427;49.654;6.596;2023-03-13T09:16:51;7;7;
74880;PMS5003;63427;49.654;6.596;2023-03-13T09:19:17;6;6;
74880;PMS5003;63427;49.654;6.596;2023-03-13T09:21:42;7;7;
74880;PMS5003;63427;49.654;6.596;2023-03-13T09:24:07;5;5;
74880;PMS5003;63427;49.654;6.596;2023-03-13T09:26:33;6;5;
74880;PMS5003;63427;49.654;6.596;2023-03-13T09:28:58;7;5;
74880;PMS5003;63427;49.654;6.596;2023-03-13T09:31:25;6;6;
74880;PMS5003;63427;49.654;6.596;2023-03-13T09:33:49;6;6;
74880;PMS5003;63427;49.654;6.596;2023-03-13T09:36:15;2;2;
74880;PMS5003;63427;49.654;6.596;2023-03-13T09:38:40;7;7;
74880;PMS5003;63427;49.654;6.596;2023-03-13T09:41:23;5;4;
74880;PMS5003;63427;49.654;6.596;2023-03-13T09:43:34;5;5;
74880;PMS5003;63427;49.654;6.596;2023-03-13T09:45:57;4;4;
74880;PMS5003;63427;49.654;6.596;2023-03-13T09:48:25;4;4;
74880;PMS5003;63427;49.654;6.596;2023-03-13T09:50:50;5;5;
74880;PMS5003;63427;49.654;6.596;2023-03-13T09:53:13;6;6;
74880;PMS5003;63427;49.654;6.596;2023-03-13T09:55:38;4;4;
74880;PMS5003;63427;49.654;6.596;2023-03-13T09:58:03;5;5;
74880;PMS5003;63427;49.654;6.596;2023-03-13T10:00:29;6;6;
74880;PMS5003;63427;49.654;6.596;2023-03-13T10:02:54;5;5;
74880;PMS5003;63427;49.654;6.596;2023-03-13T10:05:19;5;5;
74880;PMS5003;63427;49.654;6.596;2023-03-13T10:07:44;4;4;
74880;PMS5003;63427;49.654;6.596;2023-03-13T10:10:10;5;5;
74880;PMS5003;63427;49.654;6.596;2023-03-13T10:12:36;5;5;
74880;PMS5003;63427;49.654;6.596;2023-03-13T10:15:16;4;4;
74880;PMS5003;63427;49.654;6.596;2023-03-13T10:17:30;4;4;
74880;PMS5003;63427;49.654;6.596;2023-03-13T10:19:54;4;4;
74880;PMS5003;63427;49.654;6.596;2023-03-13T10:22:17;4;4;
74880;PMS5003;63427;49.654;6.596;2023-03-13T10:24:44;6;5;
74880;PMS5003;63427;49.654;6.596;2023-03-13T10:27:07;4;4;
74880;PMS5003;63427;49.654;6.596;2023-03-13T10:29:33;4;4;
74880;PMS5003;63427;49.654;6.596;2023-03-13T10:31:59;5;5;
74880;PMS5003;63427;49.654;6.596;2023-03-13T10:34:24;4;4;
74880;PMS5003;63427;49.654;6.596;2023-03-13T10:36:49;4;4;
74880;PMS5003;63427;49.654;6.596;2023-03-13T10:39:15;5;5;
74880;PMS5003;63427;49.654;6.596;2023-03-13T10:41:39;5;5;
74880;PMS5003;63427;49.654;6.596;2023-03-13T10:44:05;5;5;
74880;PMS5003;63427;49.654;6.596;2023-03-13T10:46:31;6;6;
74880;PMS5003;63427;49.654;6.596;2023-03-13T10:48:56;4;4;
74880;PMS5003;63427;49.654;6.596;2023-03-13T10:51:22;4;4;
74880;PMS5003;63427;49.654;6.596;2023-03-13T10:53:46;5;5;
74880;PMS5003;63427;49.654;6.596;2023-03-13T10:56:12;5;5;
74880;PMS5003;63427;49.654;6.596;2023-03-13T10:58:40;6;6;
74880;PMS5003;63427;49.654;6.596;2023-03-13T11:03:30;4;4;
74880;PMS5003;63427;49.654;6.596;2023-03-13T11:05:53;4;4;
74880;PMS5003;63427;49.654;6.596;2023-03-13T11:08:19;6;6;
74880;PMS5003;63427;49.654;6.596;2023-03-13T11:13:09;7;6;
74880;PMS5003;63427;49.654;6.596;2023-03-13T11:15:36;5;5;
74880;PMS5003;63427;49.654;6.596;2023-03-13T11:18:00;6;6;
74880;PMS5003;63427;49.654;6.596;2023-03-13T11:20:26;3;3;
74880;PMS5003;63427;49.654;6.596;2023-03-13T11:22:54;4;4;
74880;PMS5003;63427;49.654;6.596;2023-03-13T11:25:18;5;5;
74880;PMS5003;63427;49.654;6.596;2023-03-13T11:27:42;4;4;
74880;PMS5003;63427;49.654;6.596;2023-03-13T11:30:10;5;5;
74880;PMS5003;63427;49.654;6.596;2023-03-13T11:32:35;7;6;
74880;PMS5003;63427;49.654;6.596;2023-03-13T11:34:57;5;4;
74880;PMS5003;63427;49.654;6.596;2023-03-13T11:37:22;5;5;
74880;PMS5003;63427;49.654;6.596;2023-03-13T11:39:51;5;5;
74880;PMS5003;63427;49.654;6.596;2023-03-13T11:42:19;4;4;
74880;PMS5003;63427;49.654;6.596;2023-03-13T11:44:43;3;3;
74880;PMS5003;63427;49.654;6.596;2023-03-13T11:47:07;3;3;
74880;PMS5003;63427;49.654;6.596;2023-03-13T11:49:33;7;7;
74880;PMS5003;63427;49.654;6.596;2023-03-13T11:51:57;5;5;
74880;PMS5003;63427;49.654;6.596;2023-03-13T11:54:24;4;4;
74880;PMS5003;63427;49.654;6.596;2023-03-13T11:56:46;4;4;
74880;PMS5003;63427;49.654;6.596;2023-03-13T11:59:20;5;5;
74880;PMS5003;63427;49.654;6.596;2023-03-13T12:01:36;4;4;
74880;PMS5003;63427;49.654;6.596;2023-03-13T12:04:03;5;5;
74880;PMS5003;63427;49.654;6.596;2023-03-13T12:06:28;5;4;
74880;PMS5003;63427;49.654;6.596;2023-03-13T12:08:52;5;5;
74880;PMS5003;63427;49.654;6.596;2023-03-13T12:11:17;5;5;
74880;PMS5003;63427;49.654;6.596;2023-03-13T12:13:43;5;4;
74880;PMS5003;63427;49.654;6.596;2023-03-13T12:16:08;4;4;
74880;PMS5003;63427;49.654;6.596;2023-03-13T12:18:33;5;5;
74880;PMS5003;63427;49.654;6.596;2023-03-13T12:20:59;5;5;
74880;PMS5003;63427;49.654;6.596;2023-03-13T12:23:25;5;5;
74880;PMS5003;63427;49.654;6.596;2023-03-13T12:25:50;4;4;
74880;PMS5003;63427;49.654;6.596;2023-03-13T12:28:17;5;5;
74880;PMS5003;63427;49.654;6.596;2023-03-13T12:30:39;6;6;
74880;PMS5003;63427;49.654;6.596;2023-03-13T12:33:12;4;4;
74880;PMS5003;63427;49.654;6.596;2023-03-13T12:35:30;4;3;
74880;PMS5003;63427;49.654;6.596;2023-03-13T12:37:57;6;6;
74880;PMS5003;63427;49.654;6.596;2023-03-13T12:40:22;6;6;
74880;PMS5003;63427;49.654;6.596;2023-03-13T12:42:48;4;4;
74880;PMS5003;63427;49.654;6.596;2023-03-13T12:45:13;5;5;
74880;PMS5003;63427;49.654;6.596;2023-03-13T12:47:50;4;4;
74880;PMS5003;63427;49.654;6.596;2023-03-13T12:50:06;6;6;
74880;PMS5003;63427;49.654;6.596;2023-03-13T12:54:55;4;4;
74880;PMS5003;63427;49.654;6.596;2023-03-13T12:57:20;2;2;
74880;PMS5003;63427;49.654;6.596;2023-03-13T12:59:42;4;4;
74880;PMS5003;63427;49.654;6.596;2023-03-13T13:04:33;5;4;
74880;PMS5003;63427;49.654;6.596;2023-03-13T13:06:58;6;5;
74880;PMS5003;63427;49.654;6.596;2023-03-13T13:09:23;4;4;
74880;PMS5003;63427;49.654;6.596;2023-03-13T13:11:48;7;6;
74880;PMS5003;63427;49.654;6.596;2023-03-13T13:16:38;5;5;
74880;PMS5003;63427;49.654;6.596;2023-03-13T13:21:29;4;4;
74880;PMS5003;63427;49.654;6.596;2023-03-13T13:23:54;4;4;
74880;PMS5003;63427;49.654;6.596;2023-03-13T13:28:44;5;5;
74880;PMS5003;63427;49.654;6.596;2023-03-13T13:33:36;7;7;
74880;PMS5003;63427;49.654;6.596;2023-03-13T13:38:29;6;5;
74880;PMS5003;63427;49.654;6.596;2023-03-13T13:40:57;5;5;
74880;PMS5003;63427;49.654;6.596;2023-03-13T13:43:19;5;5;
74880;PMS5003;63427;49.654;6.596;2023-03-13T13:45:45;7;7;
74880;PMS5003;63427;49.654;6.596;2023-03-13T13:48:13;5;5;
74880;PMS5003;63427;49.654;6.596;2023-03-13T13:50:32;5;5;
74880;PMS5003;63427;49.654;6.596;2023-03-13T13:55:31;4;4;
74880;PMS5003;63427;49.654;6.596;2023-03-13T13:57:48;5;5;
74880;PMS5003;63427;49.654;6.596;2023-03-13T14:00:15;4;4;
74880;PMS5003;63427;49.654;6.596;2023-03-13T14:02:43;3;3;
74880;PMS5003;63427;49.654;6.596;2023-03-13T14:05:05;7;7;
74880;PMS5003;63427;49.654;6.596;2023-03-13T14:07:31;6;6;
74880;PMS5003;63427;49.654;6.596;2023-03-13T14:10:00;3;3;
74880;PMS5003;63427;49.654;6.596;2023-03-13T14:12:26;6;5;
74880;PMS5003;63427;49.654;6.596;2023-03-13T14:14:45;6;5;
74880;PMS5003;63427;49.654;6.596;2023-03-13T14:17:10;2;2;
74880;PMS5003;63427;49.654;6.596;2023-03-13T14:19:37;5;5;
74880;PMS5003;63427;49.654;6.596;2023-03-13T14:22:02;3;3;
74880;PMS5003;63427;49.654;6.596;2023-03-13T14:24:26;3;3;
74880;PMS5003;63427;49.654;6.596;2023-03-13T14:26:51;2;2;
74880;PMS5003;63427;49.654;6.596;2023-03-13T14:29:17;3;3;
74880;PMS5003;63427;49.654;6.596;2023-03-13T14:31:49;2;2;
74880;PMS5003;63427;49.654;6.596;2023-03-13T14:34:08;4;4;
74880;PMS5003;63427;49.654;6.596;2023-03-13T14:38:58;5;5;
74880;PMS5003;63427;49.654;6.596;2023-03-13T14:41:27;2;2;
74880;PMS5003;63427;49.654;6.596;2023-03-13T14:43:49;3;3;
74880;PMS5003;63427;49.654;6.596;2023-03-13T14:46:17;3;3;
74880;PMS5003;63427;49.654;6.596;2023-03-13T14:48:40;4;4;
74880;PMS5003;63427;49.654;6.596;2023-03-13T14:51:07;2;2;
74880;PMS5003;63427;49.654;6.596;2023-03-13T14:53:30;4;3;
74880;PMS5003;63427;49.654;6.596;2023-03-13T14:58:24;3;3;
74880;PMS5003;63427;49.654;6.596;2023-03-13T15:00:47;1;1;
74880;PMS5003;63427;49.654;6.596;2023-03-13T15:05:37;2;2;
74880;PMS5003;63427;49.654;6.596;2023-03-13T15:08:03;3;3;
74880;PMS5003;63427;49.654;6.596;2023-03-13T15:10:30;3;3;
74880;PMS5003;63427;49.654;6.596;2023-03-13T15:12:53;3;3;
74880;PMS5003;63427;49.654;6.596;2023-03-13T15:15:18;2;2;
74880;PMS5003;63427;49.654;6.596;2023-03-13T15:17:44;2;1;
74880;PMS5003;63427;49.654;6.596;2023-03-13T15:20:09;2;2;
74880;PMS5003;63427;49.654;6.596;2023-03-13T15:22:35;1;1;
74880;PMS5003;63427;49.654;6.596;2023-03-13T15:24:59;2;2;
74880;PMS5003;63427;49.654;6.596;2023-03-13T15:27:25;1;1;
74880;PMS5003;63427;49.654;6.596;2023-03-13T15:29:50;2;2;
74880;PMS5003;63427;49.654;6.596;2023-03-13T15:32:18;3;3;
74880;PMS5003;63427;49.654;6.596;2023-03-13T15:34:40;2;2;
74880;PMS5003;63427;49.654;6.596;2023-03-13T15:37:08;1;0;
74880;PMS5003;63427;49.654;6.596;2023-03-13T15:39:31;2;2;
74880;PMS5003;63427;49.654;6.596;2023-03-13T15:41:56;3;3;
74880;PMS5003;63427;49.654;6.596;2023-03-13T15:44:22;2;2;
74880;PMS5003;63427;49.654;6.596;2023-03-13T15:46:47;2;2;
74880;PMS5003;63427;49.654;6.596;2023-03-13T15:49:12;2;2;
74880;PMS5003;63427;49.654;6.596;2023-03-13T15:51:37;2;2;
74880;PMS5003;63427;49.654;6.596;2023-03-13T15:54:03;2;2;
74880;PMS5003;63427;49.654;6.596;2023-03-13T15:56:29;2;2;
74880;PMS5003;63427;49.654;6.596;2023-03-13T15:58:53;2;2;
74880;PMS5003;63427;49.654;6.596;2023-03-13T16:01:18;4;3;
74880;PMS5003;63427;49.654;6.596;2023-03-13T16:03:44;1;1;
74880;PMS5003;63427;49.654;6.596;2023-03-13T16:06:11;2;2;
74880;PMS5003;63427;49.654;6.596;2023-03-13T16:08:34;3;3;
74880;PMS5003;63427;49.654;6.596;2023-03-13T16:11:00;3;3;
74880;PMS5003;63427;49.654;6.596;2023-03-13T16:13:25;3;3;
74880;PMS5003;63427;49.654;6.596;2023-03-13T16:15:51;3;3;
74880;PMS5003;63427;49.654;6.596;2023-03-13T16:18:17;3;2;
74880;PMS5003;63427;49.654;6.596;2023-03-13T16:20:40;2;2;
74880;PMS5003;63427;49.654;6.596;2023-03-13T16:23:06;3;2;
74880;PMS5003;63427;49.654;6.596;2023-03-13T16:25:31;5;3;
74880;PMS5003;63427;49.654;6.596;2023-03-13T16:27:56;3;3;
74880;PMS5003;63427;49.654;6.596;2023-03-13T16:30:23;2;2;
74880;PMS5003;63427;49.654;6.596;2023-03-13T16:32:47;4;4;
74880;PMS5003;63427;49.654;6.596;2023-03-13T16:35:12;0;0;
74880;PMS5003;63427;49.654;6.596;2023-03-13T16:37:37;3;3;
74880;PMS5003;63427;49.654;6.596;2023-03-13T16:40:07;2;2;
74880;PMS5003;63427;49.654;6.596;2023-03-13T16:42:28;2;2;
74880;PMS5003;63427;49.654;6.596;2023-03-13T16:44:53;3;3;
74880;PMS5003;63427;49.654;6.596;2023-03-13T16:47:19;3;3;
74880;PMS5003;63427;49.654;6.596;2023-03-13T16:49:44;2;2;
74880;PMS5003;63427;49.654;6.596;2023-03-13T16:52:11;2;2;
74880;PMS5003;63427;49.654;6.596;2023-03-13T16:54:34;2;2;
74880;PMS5003;63427;49.654;6.596;2023-03-13T16:57:00;3;2;
74880;PMS5003;63427;49.654;6.596;2023-03-13T16:59:25;2;2;
74880;PMS5003;63427;49.654;6.596;2023-03-13T17:01:50;2;2;
74880;PMS5003;63427;49.654;6.596;2023-03-13T17:04:15;4;4;
74880;PMS5003;63427;49.654;6.596;2023-03-13T17:06:41;7;7;
74880;PMS5003;63427;49.654;6.596;2023-03-13T17:09:09;1;1;
74880;PMS5003;63427;49.654;6.596;2023-03-13T17:11:32;2;2;
74880;PMS5003;63427;49.654;6.596;2023-03-13T17:13:57;4;4;